createdAt,value
2017-03-21T00:00:15.380Z,0
2017-03-21T00:02:01.110Z,0
2017-03-21T00:03:01.150Z,0
2017-03-21T00:04:00.859Z,0
2017-03-21T00:05:00.877Z,0
2017-03-21T00:06:01.202Z,0
2017-03-21T00:07:00.916Z,0
2017-03-21T00:08:01.255Z,0
2017-03-21T00:09:15.884Z,0
2017-03-21T00:10:01.300Z,0
2017-03-21T00:11:01.311Z,0
2017-03-21T00:12:15.947Z,0
2017-03-21T00:14:01.381Z,0
2017-03-21T00:15:01.407Z,0
2017-03-21T00:16:01.423Z,0
2017-03-21T00:17:01.439Z,0
2017-03-21T00:18:01.159Z,0
2017-03-21T00:19:16.102Z,0
2017-03-21T00:20:16.161Z,0
2017-03-21T00:21:01.527Z,0
2017-03-21T00:22:01.547Z,0
2017-03-21T00:23:01.577Z,0
2017-03-21T00:24:01.595Z,0
2017-03-21T00:26:01.640Z,0
2017-03-21T00:27:16.275Z,0
2017-03-21T00:28:01.677Z,0
2017-03-21T00:30:16.343Z,0
2017-03-21T00:31:16.363Z,0
2017-03-21T00:32:01.773Z,0
2017-03-21T00:33:01.494Z,0
2017-03-21T00:34:16.133Z,0
2017-03-21T00:35:16.453Z,0
2017-03-21T00:36:01.562Z,0
2017-03-21T00:37:01.877Z,0
2017-03-21T00:38:01.599Z,0
2017-03-21T00:39:01.926Z,0
2017-03-21T00:40:01.948Z,0
2017-03-21T00:41:01.657Z,0
2017-03-21T00:42:01.989Z,0
2017-03-21T00:43:02.017Z,0
2017-03-21T00:44:02.038Z,0
2017-03-21T00:45:02.057Z,0
2017-03-21T00:46:02.072Z,0
2017-03-21T00:48:02.119Z,0
2017-03-21T00:49:02.143Z,0
2017-03-21T00:50:02.164Z,0
2017-03-21T00:51:16.801Z,0
2017-03-21T00:52:01.901Z,0
2017-03-21T00:53:02.238Z,0
2017-03-21T00:54:02.270Z,0
2017-03-21T00:55:16.891Z,0
2017-03-21T00:56:02.292Z,0
2017-03-21T00:57:02.010Z,0
2017-03-21T00:58:02.341Z,0
2017-03-21T00:59:02.361Z,0
2017-03-21T01:01:02.401Z,0
2017-03-21T01:02:17.037Z,0
2017-03-21T01:03:02.456Z,0
2017-03-21T01:04:02.470Z,0
2017-03-21T01:05:02.493Z,0
2017-03-21T01:06:02.511Z,0
2017-03-21T01:07:17.149Z,0
2017-03-21T01:08:01.950Z,0
2017-03-21T01:09:02.280Z,0
2017-03-21T01:10:02.599Z,0
2017-03-21T01:11:02.316Z,0
2017-03-21T01:12:02.337Z,0
2017-03-21T01:13:02.664Z,0
2017-03-21T01:14:02.395Z,0
2017-03-21T01:15:02.721Z,0
2017-03-21T01:16:02.730Z,0
2017-03-21T01:17:02.446Z,0
2017-03-21T01:18:02.474Z,0
2017-03-21T01:19:02.796Z,0
2017-03-21T01:21:02.841Z,0
2017-03-21T01:22:17.479Z,0
2017-03-21T01:23:02.883Z,0
2017-03-21T01:24:02.906Z,0
2017-03-21T01:25:02.928Z,0
2017-03-21T01:26:02.946Z,0
2017-03-21T01:27:02.975Z,0
2017-03-21T01:28:02.994Z,0
2017-03-21T01:29:03.020Z,0
2017-03-21T01:30:03.037Z,0
2017-03-21T01:31:03.066Z,0
2017-03-21T01:32:03.074Z,0
2017-03-21T01:33:03.112Z,0
2017-03-21T01:34:03.322Z,0
2017-03-21T01:35:17.762Z,0
2017-03-21T01:36:02.858Z,0
2017-03-21T01:37:03.188Z,0
2017-03-21T01:38:03.204Z,0
2017-03-21T01:39:03.231Z,0
2017-03-21T01:40:02.948Z,0
2017-03-21T01:41:03.273Z,0
2017-03-21T01:42:03.295Z,0
2017-03-21T01:43:03.328Z,0
2017-03-21T01:44:03.694Z,0
2017-03-21T01:45:03.382Z,0
2017-03-21T01:46:03.383Z,0
2017-03-21T01:47:03.409Z,0
2017-03-21T01:48:03.428Z,0
2017-03-21T01:49:18.069Z,0
2017-03-21T01:50:03.474Z,0
2017-03-21T01:51:03.494Z,0
2017-03-21T01:52:17.825Z,0
2017-03-21T01:53:03.545Z,0
2017-03-21T01:54:18.177Z,0
2017-03-21T01:55:03.277Z,0
2017-03-21T01:56:03.602Z,0
2017-03-21T01:57:03.620Z,0
2017-03-21T01:58:03.645Z,0
2017-03-21T01:59:03.670Z,0
2017-03-21T02:00:03.388Z,0
2017-03-21T02:01:03.955Z,0
2017-03-21T02:02:03.728Z,0
2017-03-21T02:03:18.375Z,0
2017-03-21T02:04:03.775Z,0
2017-03-21T02:05:03.796Z,0
2017-03-21T02:06:03.814Z,0
2017-03-21T02:07:03.851Z,0
2017-03-21T02:08:18.477Z,0
2017-03-21T02:09:03.331Z,0
2017-03-21T02:10:18.217Z,0
2017-03-21T02:11:03.930Z,0
2017-03-21T02:12:03.949Z,0
2017-03-21T02:13:03.972Z,0
2017-03-21T02:14:03.995Z,0
2017-03-21T02:15:04.021Z,0
2017-03-21T02:16:03.426Z,0
2017-03-21T02:17:04.059Z,0
2017-03-21T02:18:04.079Z,0
2017-03-21T02:19:04.103Z,0
2017-03-21T02:20:04.125Z,0
2017-03-21T02:21:18.762Z,0
2017-03-21T02:23:04.196Z,0
2017-03-21T02:24:04.211Z,0
2017-03-21T02:25:04.234Z,0
2017-03-21T02:26:18.867Z,0
2017-03-21T02:27:04.275Z,0
2017-03-21T02:28:04.299Z,0
2017-03-21T02:29:04.322Z,0
2017-03-21T02:30:04.348Z,0
2017-03-21T02:31:04.357Z,0
2017-03-21T02:32:04.381Z,0
2017-03-21T02:33:04.404Z,0
2017-03-21T02:34:19.042Z,0
2017-03-21T02:35:04.448Z,0
2017-03-21T02:36:04.468Z,0
2017-03-21T02:37:04.489Z,0
2017-03-21T02:40:04.553Z,0
2017-03-21T02:41:04.579Z,0
2017-03-21T02:42:19.213Z,0
2017-03-21T02:43:04.626Z,0
2017-03-21T02:44:04.648Z,0
2017-03-21T02:45:04.670Z,0
2017-03-21T02:46:04.686Z,0
2017-03-21T02:47:04.709Z,0
2017-03-21T02:48:04.433Z,0
2017-03-21T02:49:19.369Z,0
2017-03-21T02:50:04.774Z,0
2017-03-21T02:51:04.798Z,0
2017-03-21T02:53:04.842Z,0
2017-03-21T02:54:19.477Z,0
2017-03-21T02:55:04.896Z,0
2017-03-21T02:56:04.901Z,0
2017-03-21T02:57:19.542Z,0
2017-03-21T02:58:04.956Z,0
2017-03-21T02:59:19.592Z,0
2017-03-21T03:00:04.685Z,0
2017-03-21T03:01:05.311Z,0
2017-03-21T03:03:05.053Z,0
2017-03-21T03:04:19.694Z,0
2017-03-21T03:05:19.714Z,0
2017-03-21T03:07:05.187Z,0
2017-03-21T03:08:19.781Z,0
2017-03-21T03:09:05.185Z,0
2017-03-21T03:10:04.900Z,0
2017-03-21T03:11:05.232Z,0
2017-03-21T03:12:05.254Z,0
2017-03-21T03:13:05.275Z,0
2017-03-21T03:14:05.329Z,0
2017-03-21T03:15:05.315Z,0
2017-03-21T03:16:05.338Z,0
2017-03-21T03:17:05.358Z,0
2017-03-21T03:18:05.403Z,0
2017-03-21T03:19:05.408Z,0
2017-03-21T03:20:05.121Z,0
2017-03-21T03:21:05.443Z,0
2017-03-21T03:22:05.468Z,0
2017-03-21T03:23:05.499Z,0
2017-03-21T03:25:05.229Z,0
2017-03-21T03:26:20.167Z,0
2017-03-21T03:27:05.586Z,0
2017-03-21T03:28:05.446Z,0
2017-03-21T03:29:20.234Z,0
2017-03-21T03:30:05.640Z,0
2017-03-21T03:31:05.656Z,0
2017-03-21T03:32:05.683Z,0
2017-03-21T03:33:05.706Z,0
2017-03-21T03:34:20.346Z,0
2017-03-21T03:35:05.447Z,0
2017-03-21T03:36:05.766Z,0
2017-03-21T03:37:05.790Z,0
2017-03-21T03:38:05.512Z,0
2017-03-21T03:39:05.899Z,0
2017-03-21T03:40:20.168Z,0
2017-03-21T03:41:05.879Z,0
2017-03-21T03:43:05.622Z,0
2017-03-21T03:44:05.943Z,0
2017-03-21T03:45:20.276Z,0
2017-03-21T03:46:05.985Z,0
2017-03-21T03:47:06.009Z,0
2017-03-21T03:48:06.033Z,0
2017-03-21T03:49:06.057Z,0
2017-03-21T03:50:05.768Z,0
2017-03-21T03:51:06.092Z,0
2017-03-21T03:52:06.118Z,0
2017-03-21T03:53:06.141Z,0
2017-03-21T03:54:06.165Z,0
2017-03-21T03:55:06.184Z,0
2017-03-21T03:56:06.201Z,0
2017-03-21T03:57:06.223Z,0
2017-03-21T03:58:06.251Z,0
2017-03-21T03:59:06.269Z,0
2017-03-21T04:00:06.292Z,0
2017-03-21T04:01:20.924Z,0
2017-03-21T04:02:06.330Z,0
2017-03-21T04:03:06.357Z,0
2017-03-21T04:04:20.997Z,0
2017-03-21T04:06:06.113Z,0
2017-03-21T04:07:21.058Z,0
2017-03-21T04:08:06.463Z,0
2017-03-21T04:09:06.482Z,0
2017-03-21T04:10:06.509Z,0
2017-03-21T04:11:21.141Z,0
2017-03-21T04:12:06.246Z,0
2017-03-21T04:13:06.575Z,0
2017-03-21T04:14:06.291Z,0
2017-03-21T04:17:21.270Z,0
2017-03-21T04:18:06.682Z,0
2017-03-21T04:19:06.701Z,0
2017-03-21T04:20:06.720Z,0
2017-03-21T04:21:07.041Z,0
2017-03-21T04:22:06.761Z,0
2017-03-21T04:23:06.792Z,0
2017-03-21T04:24:06.805Z,0
2017-03-21T04:25:06.831Z,0
2017-03-21T04:26:06.847Z,0
2017-03-21T04:27:21.487Z,0
2017-03-21T04:28:21.512Z,0
2017-03-21T04:29:06.916Z,0
2017-03-21T04:30:06.941Z,0
2017-03-21T04:31:06.957Z,0
2017-03-21T04:32:21.292Z,0
2017-03-21T04:33:06.702Z,0
2017-03-21T04:34:07.027Z,0
2017-03-21T04:35:07.046Z,0
2017-03-21T04:36:07.068Z,0
2017-03-21T04:37:07.097Z,0
2017-03-21T04:38:07.117Z,0
2017-03-21T04:39:07.146Z,0
2017-03-21T04:40:06.851Z,0
2017-03-21T04:41:07.175Z,4
2017-03-21T04:42:07.196Z,4
2017-03-21T04:44:21.859Z,4
2017-03-21T04:45:21.879Z,4
2017-03-21T04:48:07.327Z,8
2017-03-21T04:49:07.350Z,8
2017-03-21T04:50:07.063Z,8
2017-03-21T04:51:07.398Z,12
2017-03-21T04:52:07.111Z,16
2017-03-21T04:53:07.435Z,12
2017-03-21T04:54:07.455Z,16
2017-03-21T04:55:07.475Z,20
2017-03-21T04:56:07.500Z,20
2017-03-21T04:57:07.524Z,24
2017-03-21T04:58:07.549Z,28
2017-03-21T04:59:07.563Z,28
2017-03-21T05:01:07.617Z,36
2017-03-21T05:02:07.638Z,40
2017-03-21T05:03:07.650Z,60
2017-03-21T05:04:22.291Z,84
2017-03-21T05:05:07.695Z,100
2017-03-21T05:06:07.712Z,104
2017-03-21T05:07:07.434Z,100
2017-03-21T05:08:07.759Z,104
2017-03-21T05:09:07.783Z,108
2017-03-21T05:10:07.497Z,124
2017-03-21T05:11:07.826Z,136
2017-03-21T05:13:07.867Z,136
2017-03-21T05:14:07.894Z,128
2017-03-21T05:15:07.603Z,124
2017-03-21T05:16:22.545Z,128
2017-03-21T05:17:07.954Z,136
2017-03-21T05:18:07.671Z,144
2017-03-21T05:19:08.000Z,164
2017-03-21T05:20:22.631Z,204
2017-03-21T05:21:07.430Z,232
2017-03-21T05:22:08.076Z,280
2017-03-21T05:23:08.079Z,332
2017-03-21T05:24:22.113Z,400
2017-03-21T05:25:08.125Z,480
2017-03-21T05:26:07.842Z,592
2017-03-21T05:27:08.173Z,560
2017-03-21T05:28:22.804Z,576
2017-03-21T05:29:07.907Z,628
2017-03-21T05:30:07.933Z,636
2017-03-21T05:31:07.948Z,628
2017-03-21T05:32:22.893Z,676
2017-03-21T05:34:08.317Z,852
2017-03-21T05:35:08.037Z,896
2017-03-21T05:36:22.668Z,944
2017-03-21T05:37:08.389Z,884
2017-03-21T05:38:08.407Z,744
2017-03-21T05:39:08.427Z,616
2017-03-21T05:40:08.149Z,580
2017-03-21T05:41:08.160Z,480
2017-03-21T05:42:07.883Z,408
2017-03-21T05:43:23.127Z,420
2017-03-21T05:44:08.233Z,472
2017-03-21T05:45:08.560Z,500
2017-03-21T05:46:08.576Z,492
2017-03-21T05:47:08.597Z,400
2017-03-21T05:48:08.314Z,344
2017-03-21T05:49:08.643Z,356
2017-03-21T05:50:08.657Z,392
2017-03-21T05:52:23.316Z,492
2017-03-21T05:53:08.733Z,572
2017-03-21T05:54:08.749Z,620
2017-03-21T05:55:08.766Z,628
2017-03-21T05:56:08.787Z,572
2017-03-21T05:57:08.807Z,516
2017-03-21T05:58:08.529Z,504
2017-03-21T05:59:08.855Z,488
2017-03-21T06:00:23.491Z,488
2017-03-21T06:01:08.897Z,512
2017-03-21T06:02:08.924Z,616
2017-03-21T06:03:23.558Z,708
2017-03-21T06:05:08.986Z,776
2017-03-21T06:06:09.104Z,904
2017-03-21T06:07:23.647Z,892
2017-03-21T06:08:09.051Z,924
2017-03-21T06:09:09.071Z,980
2017-03-21T06:10:09.097Z,1024
2017-03-21T06:11:09.112Z,1056
2017-03-21T06:12:09.137Z,1152
2017-03-21T06:13:09.155Z,1492
2017-03-21T06:14:09.179Z,1884
2017-03-21T06:15:09.197Z,2076
2017-03-21T06:16:23.836Z,2188
2017-03-21T06:17:09.245Z,2092
2017-03-21T06:18:09.278Z,2132
2017-03-21T06:19:09.288Z,2092
2017-03-21T06:20:09.010Z,2132
2017-03-21T06:21:09.330Z,1664
2017-03-21T06:22:09.055Z,1216
2017-03-21T06:23:09.375Z,1048
2017-03-21T06:24:09.398Z,1132
2017-03-21T06:25:09.414Z,1220
2017-03-21T06:26:09.131Z,1424
2017-03-21T06:27:09.459Z,1556
2017-03-21T06:28:09.181Z,1612
2017-03-21T06:29:09.507Z,1516
2017-03-21T06:30:09.221Z,1420
2017-03-21T06:31:09.237Z,1460
2017-03-21T06:32:09.564Z,1700
2017-03-21T06:33:09.590Z,2340
2017-03-21T06:34:09.618Z,2924
2017-03-21T06:35:09.631Z,3060
2017-03-21T06:36:09.652Z,3416
2017-03-21T06:37:09.675Z,3856
2017-03-21T06:38:09.394Z,4172
2017-03-21T06:39:24.337Z,5788
2017-03-21T06:40:09.738Z,7292
2017-03-21T06:41:09.793Z,8920
2017-03-21T06:42:09.783Z,9352
2017-03-21T06:43:09.811Z,9068
2017-03-21T06:44:09.831Z,18880
2017-03-21T06:45:24.469Z,17568
2017-03-21T06:46:09.870Z,6556
2017-03-21T06:47:09.894Z,5804
2017-03-21T06:48:09.928Z,6000
2017-03-21T06:49:09.942Z,6260
2017-03-21T06:50:09.963Z,4984
2017-03-21T06:51:09.983Z,4280
2017-03-21T06:52:09.402Z,3416
2017-03-21T06:53:10.075Z,3224
2017-03-21T06:54:09.451Z,3560
2017-03-21T06:55:24.693Z,2912
2017-03-21T06:56:09.793Z,2392
2017-03-21T06:57:09.816Z,1588
2017-03-21T06:59:10.181Z,1108
2017-03-21T07:00:10.186Z,932
2017-03-21T07:01:10.207Z,932
2017-03-21T07:02:24.849Z,1068
2017-03-21T07:03:10.271Z,1172
2017-03-21T07:04:09.985Z,1196
2017-03-21T07:05:10.307Z,1116
2017-03-21T07:06:10.330Z,1104
2017-03-21T07:07:09.740Z,960
2017-03-21T07:08:10.079Z,828
2017-03-21T07:09:10.431Z,708
2017-03-21T07:10:10.424Z,600
2017-03-21T07:11:25.081Z,580
2017-03-21T07:12:10.456Z,608
2017-03-21T07:13:10.480Z,852
2017-03-21T07:14:10.502Z,1164
2017-03-21T07:15:10.218Z,1064
2017-03-21T07:16:10.543Z,1136
2017-03-21T07:17:10.566Z,1188
2017-03-21T07:18:10.591Z,1336
2017-03-21T07:19:10.617Z,1552
2017-03-21T07:20:25.252Z,1540
2017-03-21T07:21:25.272Z,1428
2017-03-21T07:22:10.368Z,1368
2017-03-21T07:23:25.315Z,1244
2017-03-21T07:24:10.725Z,1156
2017-03-21T07:27:25.400Z,1036
2017-03-21T07:29:10.828Z,1004
2017-03-21T07:30:10.846Z,1068
2017-03-21T07:31:25.489Z,1252
2017-03-21T07:32:10.589Z,1456
2017-03-21T07:33:10.921Z,1780
2017-03-21T07:34:24.944Z,1988
2017-03-21T07:35:10.955Z,2128
2017-03-21T07:36:25.594Z,2644
2017-03-21T07:37:25.310Z,2940
2017-03-21T07:38:11.022Z,3100
2017-03-21T07:39:11.054Z,3516
2017-03-21T07:40:25.681Z,4216
2017-03-21T07:41:10.779Z,4576
2017-03-21T07:42:25.752Z,5152
2017-03-21T07:43:11.132Z,5364
2017-03-21T07:44:11.159Z,5028
2017-03-21T07:45:11.170Z,4760
2017-03-21T07:46:11.193Z,4980
2017-03-21T07:47:11.214Z,5700
2017-03-21T07:48:11.238Z,5992
2017-03-21T07:50:11.280Z,5632
2017-03-21T07:51:11.306Z,5848
2017-03-21T07:52:11.019Z,6720
2017-03-21T07:53:25.659Z,8012
2017-03-21T07:54:11.374Z,8500
2017-03-21T07:55:11.390Z,7836
2017-03-21T07:56:11.414Z,7352
2017-03-21T07:57:11.434Z,6952
2017-03-21T07:58:11.466Z,6768
2017-03-21T07:59:11.483Z,6676
2017-03-21T08:00:11.498Z,6612
2017-03-21T08:01:26.143Z,6924
2017-03-21T08:02:11.546Z,7444
2017-03-21T08:03:11.304Z,7840
2017-03-21T08:04:11.587Z,7216
2017-03-21T08:05:11.614Z,6460
2017-03-21T08:06:11.631Z,6300
2017-03-21T08:07:25.973Z,5864
2017-03-21T08:08:11.374Z,5472
2017-03-21T08:09:26.322Z,5208
2017-03-21T08:10:11.119Z,5248
2017-03-21T08:11:26.360Z,6664
2017-03-21T08:12:11.780Z,8296
2017-03-21T08:13:11.794Z,16544
2017-03-21T08:14:26.431Z,21504
2017-03-21T08:16:11.554Z,20448
2017-03-21T08:17:11.879Z,19264
2017-03-21T08:18:11.614Z,23904
2017-03-21T08:19:11.930Z,24096
2017-03-21T08:20:11.947Z,26624
2017-03-21T08:21:11.975Z,28160
2017-03-21T08:23:11.718Z,18720
2017-03-21T08:24:12.049Z,13580
2017-03-21T08:25:12.073Z,10360
2017-03-21T08:26:11.787Z,9120
2017-03-21T08:27:26.730Z,7596
2017-03-21T08:28:12.145Z,7220
2017-03-21T08:29:12.165Z,8424
2017-03-21T08:30:26.801Z,8936
2017-03-21T08:31:12.214Z,11252
2017-03-21T08:32:12.241Z,15492
2017-03-21T08:33:12.255Z,17152
2017-03-21T08:34:12.286Z,27808
2017-03-21T08:35:12.303Z,28448
2017-03-21T08:36:12.329Z,32352
2017-03-21T08:37:12.357Z,28672
2017-03-21T08:38:12.080Z,18304
2017-03-21T08:39:12.406Z,17888
2017-03-21T08:41:27.073Z,21024
2017-03-21T08:42:12.485Z,15160
2017-03-21T08:43:12.499Z,16308
2017-03-21T08:44:12.527Z,26304
2017-03-21T08:45:12.246Z,22432
2017-03-21T08:46:26.890Z,20448
2017-03-21T08:47:12.603Z,22208
2017-03-21T08:48:12.326Z,20512
2017-03-21T08:49:12.649Z,18048
2017-03-21T08:50:12.682Z,19584
2017-03-21T08:51:12.699Z,20128
2017-03-21T08:52:12.740Z,23200
2017-03-21T08:53:12.756Z,23776
2017-03-21T08:54:12.471Z,22496
2017-03-21T08:55:12.802Z,15288
2017-03-21T08:56:12.523Z,12784
2017-03-21T08:57:12.859Z,11584
2017-03-21T08:58:13.028Z,11412
2017-03-21T09:00:12.629Z,12280
2017-03-21T09:01:12.654Z,11352
2017-03-21T09:02:27.593Z,11120
2017-03-21T09:03:12.395Z,11140
2017-03-21T09:04:12.423Z,10832
2017-03-21T09:05:13.073Z,9660
2017-03-21T09:06:13.563Z,7896
2017-03-21T09:07:13.154Z,6072
2017-03-21T09:08:13.131Z,5908
2017-03-21T09:09:12.853Z,8308
2017-03-21T09:10:27.797Z,10072
2017-03-21T09:11:13.205Z,10308
2017-03-21T09:12:13.258Z,9592
2017-03-21T09:13:13.253Z,12008
2017-03-21T09:14:27.896Z,13096
2017-03-21T09:15:13.305Z,13100
2017-03-21T09:16:13.327Z,12520
2017-03-21T09:17:27.971Z,10716
2017-03-21T09:18:13.387Z,8792
2017-03-21T09:19:13.403Z,8300
2017-03-21T09:20:13.426Z,8592
2017-03-21T09:21:13.452Z,8684
2017-03-21T09:22:13.478Z,8708
2017-03-21T09:23:13.506Z,7792
2017-03-21T09:24:13.527Z,7744
2017-03-21T09:25:13.553Z,9732
2017-03-21T09:26:13.575Z,10820
2017-03-21T09:27:13.600Z,10876
2017-03-21T09:28:13.627Z,10984
2017-03-21T09:29:13.647Z,11636
2017-03-21T09:30:13.373Z,12376
2017-03-21T09:31:28.318Z,15836
2017-03-21T09:32:13.422Z,14320
2017-03-21T09:33:13.751Z,13960
2017-03-21T09:34:13.773Z,15688
2017-03-21T09:35:13.797Z,15412
2017-03-21T09:36:13.520Z,13468
2017-03-21T09:37:13.542Z,12092
2017-03-21T09:38:13.571Z,10744
2017-03-21T09:39:13.894Z,9848
2017-03-21T09:40:14.027Z,9284
2017-03-21T09:41:13.952Z,8292
2017-03-21T09:42:13.978Z,7896
2017-03-21T09:43:13.702Z,7480
2017-03-21T09:45:13.746Z,19488
2017-03-21T09:46:14.070Z,11664
2017-03-21T09:47:14.097Z,19104
2017-03-21T09:48:14.124Z,11224
2017-03-21T09:49:28.766Z,8356
2017-03-21T09:50:13.867Z,7968
2017-03-21T09:51:14.201Z,7296
2017-03-21T09:52:13.916Z,6068
2017-03-21T09:53:14.249Z,5464
2017-03-21T09:55:13.990Z,4816
2017-03-21T09:56:28.634Z,4772
2017-03-21T09:57:14.347Z,4800
2017-03-21T09:58:28.992Z,4332
2017-03-21T10:00:29.066Z,3108
2017-03-21T10:03:29.111Z,4292
2017-03-21T10:04:14.217Z,4500
2017-03-21T10:05:29.161Z,3440
2017-03-21T10:06:14.568Z,2852
2017-03-21T10:07:14.589Z,2556
2017-03-21T10:08:14.620Z,2820
2017-03-21T10:09:14.637Z,3112
2017-03-21T10:10:14.665Z,3176
2017-03-21T10:11:14.687Z,3120
2017-03-21T10:12:14.411Z,3404
2017-03-21T10:14:14.761Z,3864
2017-03-21T10:15:14.781Z,4088
2017-03-21T10:16:14.807Z,4456
2017-03-21T10:17:14.840Z,4760
2017-03-21T10:18:14.550Z,5008
2017-03-21T10:19:14.881Z,5104
2017-03-21T10:21:29.246Z,5880
2017-03-21T10:22:14.650Z,6228
2017-03-21T10:23:14.984Z,6656
2017-03-21T10:24:14.699Z,6664
2017-03-21T10:25:29.373Z,6444
2017-03-21T10:26:14.745Z,6440
2017-03-21T10:27:14.769Z,6280
2017-03-21T10:28:15.096Z,6008
2017-03-21T10:29:15.117Z,5832
2017-03-21T10:30:14.842Z,5752
2017-03-21T10:31:14.866Z,5548
2017-03-21T10:32:14.588Z,5432
2017-03-21T10:33:15.213Z,5588
2017-03-21T10:35:15.261Z,6388
2017-03-21T10:36:14.994Z,6512
2017-03-21T10:37:29.926Z,6452
2017-03-21T10:38:15.031Z,6252
2017-03-21T10:39:15.362Z,6040
2017-03-21T10:40:15.077Z,6004
2017-03-21T10:41:15.099Z,5944
2017-03-21T10:42:15.126Z,5772
2017-03-21T10:43:15.518Z,5560
2017-03-21T10:44:15.478Z,5524
2017-03-21T10:45:30.118Z,5660
2017-03-21T10:46:15.222Z,5672
2017-03-21T10:47:30.164Z,5620
2017-03-21T10:48:15.572Z,5464
2017-03-21T10:50:15.317Z,4964
2017-03-21T10:51:15.339Z,4724
2017-03-21T10:52:30.290Z,4532
2017-03-21T10:53:15.426Z,4540
2017-03-21T10:54:15.413Z,4740
2017-03-21T10:55:15.741Z,4972
2017-03-21T10:56:15.460Z,5116
2017-03-21T10:57:15.484Z,5308
2017-03-21T10:58:15.809Z,5816
2017-03-21T10:59:15.938Z,6596
2017-03-21T11:00:15.861Z,7216
2017-03-21T11:01:15.886Z,7748
2017-03-21T11:02:15.604Z,8292
2017-03-21T11:03:15.629Z,8388
2017-03-21T11:04:15.661Z,8416
2017-03-21T11:05:30.640Z,8208
2017-03-21T11:06:16.007Z,7864
2017-03-21T11:07:16.028Z,7540
2017-03-21T11:08:16.050Z,7468
2017-03-21T11:09:15.473Z,7144
2017-03-21T11:11:15.516Z,5620
2017-03-21T11:12:16.142Z,5056
2017-03-21T11:13:16.171Z,4988
2017-03-21T11:14:16.190Z,5320
2017-03-21T11:15:16.219Z,5620
2017-03-21T11:16:15.938Z,5504
2017-03-21T11:17:16.267Z,5124
2017-03-21T11:19:16.311Z,4964
2017-03-21T11:21:16.360Z,5680
2017-03-21T11:22:16.382Z,5996
2017-03-21T11:23:16.406Z,6408
2017-03-21T11:24:30.744Z,6296
2017-03-21T11:25:16.455Z,6088
2017-03-21T11:26:16.479Z,5812
2017-03-21T11:27:16.504Z,5544
2017-03-21T11:28:16.527Z,5208
2017-03-21T11:29:16.550Z,4964
2017-03-21T11:30:16.469Z,4900
2017-03-21T11:31:16.296Z,4736
2017-03-21T11:32:16.621Z,4696
2017-03-21T11:33:16.647Z,4844
2017-03-21T11:34:16.730Z,4952
2017-03-21T11:35:16.388Z,4968
2017-03-21T11:36:16.413Z,5396
2017-03-21T11:37:31.364Z,6088
2017-03-21T11:38:16.764Z,6072
2017-03-21T11:39:16.488Z,5872
2017-03-21T11:40:31.124Z,5748
2017-03-21T11:41:16.532Z,5728
2017-03-21T11:42:16.860Z,5604
2017-03-21T11:43:16.880Z,5424
2017-03-21T11:44:16.908Z,5104
2017-03-21T11:45:16.929Z,4712
2017-03-21T11:46:16.655Z,4516
2017-03-21T11:47:16.672Z,4456
2017-03-21T11:48:31.619Z,4500
2017-03-21T11:49:31.643Z,4632
2017-03-21T11:50:17.052Z,4708
2017-03-21T11:52:17.095Z,4764
2017-03-21T11:53:17.121Z,4692
2017-03-21T11:54:17.154Z,4620
2017-03-21T11:55:17.167Z,4500
2017-03-21T11:56:31.809Z,4728
2017-03-21T11:57:17.216Z,4916
2017-03-21T11:58:17.247Z,4996
2017-03-21T11:59:17.265Z,5124
2017-03-21T12:00:17.286Z,5500
2017-03-21T12:01:17.007Z,5860
2017-03-21T12:02:17.331Z,6052
2017-03-21T12:03:17.361Z,6076
2017-03-21T12:04:17.388Z,6004
2017-03-21T12:05:32.026Z,5956
2017-03-21T12:06:17.436Z,5992
2017-03-21T12:07:17.148Z,5960
2017-03-21T12:08:32.097Z,5800
2017-03-21T12:09:17.211Z,5756
2017-03-21T12:10:17.522Z,5764
2017-03-21T12:11:17.546Z,5784
2017-03-21T12:12:32.188Z,5560
2017-03-21T12:13:17.295Z,5336
2017-03-21T12:14:17.620Z,5156
2017-03-21T12:15:17.643Z,5172
2017-03-21T12:16:17.058Z,5232
2017-03-21T12:17:17.689Z,5268
2017-03-21T12:18:17.711Z,5364
2017-03-21T12:19:17.745Z,5540
2017-03-21T12:20:17.158Z,5584
2017-03-21T12:21:17.505Z,5520
2017-03-21T12:22:32.423Z,5664
2017-03-21T12:23:17.226Z,5736
2017-03-21T12:24:17.859Z,5768
2017-03-21T12:26:17.902Z,5436
2017-03-21T12:27:32.542Z,5304
2017-03-21T12:28:17.952Z,5216
2017-03-21T12:29:17.977Z,5172
2017-03-21T12:30:17.999Z,5068
2017-03-21T12:31:18.028Z,4908
2017-03-21T12:32:17.136Z,4776
2017-03-21T12:33:17.773Z,4632
2017-03-21T12:34:32.713Z,4448
2017-03-21T12:36:32.458Z,4168
2017-03-21T12:37:18.163Z,4052
2017-03-21T12:39:17.910Z,3636
2017-03-21T12:40:17.934Z,3480
2017-03-21T12:41:17.955Z,3368
2017-03-21T12:42:17.981Z,3328
2017-03-21T12:43:18.345Z,3364
2017-03-21T12:44:17.727Z,3476
2017-03-21T12:45:18.053Z,3728
2017-03-21T12:46:18.381Z,3988
2017-03-21T12:47:18.399Z,4208
2017-03-21T12:48:18.429Z,4476
2017-03-21T12:49:18.456Z,4628
2017-03-21T12:50:18.477Z,4684
2017-03-21T12:51:33.112Z,4796
2017-03-21T12:52:18.516Z,4972
2017-03-21T12:53:33.162Z,5300
2017-03-21T12:54:18.261Z,5532
2017-03-21T12:55:33.205Z,5664
2017-03-21T12:56:18.617Z,5628
2017-03-21T12:57:18.641Z,5576
2017-03-21T12:58:18.665Z,5536
2017-03-21T12:59:32.997Z,5424
2017-03-21T13:00:18.714Z,5252
2017-03-21T13:01:18.733Z,5128
2017-03-21T13:02:18.757Z,5204
2017-03-21T13:03:18.780Z,5284
2017-03-21T13:04:18.194Z,5408
2017-03-21T13:05:33.443Z,5544
2017-03-21T13:06:18.851Z,5600
2017-03-21T13:08:18.895Z,5568
2017-03-21T13:09:18.919Z,5536
2017-03-21T13:10:18.947Z,5424
2017-03-21T13:11:18.963Z,5352
2017-03-21T13:12:19.003Z,5388
2017-03-21T13:13:33.629Z,5420
2017-03-21T13:14:19.040Z,5416
2017-03-21T13:15:33.378Z,5244
2017-03-21T13:16:19.086Z,5204
2017-03-21T13:17:19.111Z,5188
2017-03-21T13:18:19.138Z,5160
2017-03-21T13:19:19.163Z,5304
2017-03-21T13:20:18.874Z,5368
2017-03-21T13:21:19.203Z,5344
2017-03-21T13:22:19.226Z,5268
2017-03-21T13:23:19.253Z,5084
2017-03-21T13:24:19.273Z,4876
2017-03-21T13:25:33.916Z,4584
2017-03-21T13:26:19.324Z,4388
2017-03-21T13:27:19.045Z,4104
2017-03-21T13:29:19.085Z,3848
2017-03-21T13:30:19.426Z,3836
2017-03-21T13:31:33.751Z,3924
2017-03-21T13:32:19.469Z,3924
2017-03-21T13:33:19.491Z,3884
2017-03-21T13:34:19.516Z,3748
2017-03-21T13:35:19.534Z,3672
2017-03-21T13:36:19.557Z,3580
2017-03-21T13:37:34.199Z,3512
2017-03-21T13:38:34.222Z,3772
2017-03-21T13:39:19.324Z,4088
2017-03-21T13:40:19.651Z,4468
2017-03-21T13:41:19.678Z,4776
2017-03-21T13:42:19.396Z,4960
2017-03-21T13:43:34.338Z,5048
2017-03-21T13:44:20.048Z,5012
2017-03-21T13:45:19.770Z,4920
2017-03-21T13:46:19.795Z,4836
2017-03-21T13:47:34.432Z,4688
2017-03-21T13:48:19.538Z,4608
2017-03-21T13:49:19.868Z,4632
2017-03-21T13:50:19.887Z,4736
2017-03-21T13:51:34.531Z,4928
2017-03-21T13:52:19.930Z,5060
2017-03-21T13:53:19.960Z,5200
2017-03-21T13:54:19.981Z,5356
2017-03-21T13:55:20.010Z,5476
2017-03-21T13:56:20.030Z,5492
2017-03-21T13:57:20.052Z,5444
2017-03-21T13:58:19.777Z,5388
2017-03-21T13:59:19.794Z,5300
2017-03-21T14:00:19.820Z,5200
2017-03-21T14:02:34.788Z,4904
2017-03-21T14:03:20.198Z,4764
2017-03-21T14:04:20.220Z,4544
2017-03-21T14:05:19.967Z,4272
2017-03-21T14:06:19.963Z,3964
2017-03-21T14:07:20.296Z,3636
2017-03-21T14:08:20.314Z,3444
2017-03-21T14:09:20.337Z,3424
2017-03-21T14:10:20.059Z,3516
2017-03-21T14:11:20.384Z,3780
2017-03-21T14:12:35.023Z,3860
2017-03-21T14:14:20.153Z,3712
2017-03-21T14:15:20.473Z,3584
2017-03-21T14:17:20.523Z,3128
2017-03-21T14:18:20.554Z,2984
2017-03-21T14:20:20.592Z,3240
2017-03-21T14:21:20.326Z,3544
2017-03-21T14:22:20.638Z,3880
2017-03-21T14:23:35.290Z,4308
2017-03-21T14:24:35.306Z,4488
2017-03-21T14:25:20.711Z,4592
2017-03-21T14:26:21.084Z,4732
2017-03-21T14:27:20.766Z,4852
2017-03-21T14:28:20.782Z,4904
2017-03-21T14:29:20.829Z,4900
2017-03-21T14:30:20.831Z,4844
2017-03-21T14:31:20.851Z,4756
2017-03-21T14:32:20.570Z,4660
2017-03-21T14:33:20.900Z,4560
2017-03-21T14:34:35.234Z,4436
2017-03-21T14:35:20.642Z,4368
2017-03-21T14:36:20.666Z,4304
2017-03-21T14:37:20.688Z,4236
2017-03-21T14:38:20.916Z,4180
2017-03-21T14:39:21.046Z,4112
2017-03-21T14:40:21.065Z,4044
2017-03-21T14:41:20.786Z,3968
2017-03-21T14:42:35.726Z,3868
2017-03-21T14:43:21.133Z,3816